Time;durP1;ratioP1;P1;durP2;ratioP2;P2;SDS_P1;SDS_P2;PMS_P1;PMS_P2;Temp;Humidity;BMP_temperature;BMP_pressure;BME280_temperature;BME280_humidity;BME280_pressure;Samples;Min_cycle;Max_cycle;Signal;HPM_P1;HPM_P2
2023/03/29 00:01:16;;;;;;;0.37;0.23;;;;;;;7.26;96.72;100576.84;4991722;28;20449;-52
2023/03/29 00:04:05;;;;;;;1.40;1.30;;;;;;;7.42;96.03;100573.16;4991620;28;20484;-51
2023/03/29 00:06:32;;;;;;;0.40;0.30;;;;;;;7.43;96.34;100568.75;4991238;28;20489;-53
2023/03/29 00:09:00;;;;;;;1.00;1.00;;;;;;;7.29;96.55;100578.59;4991382;28;20493;-52
2023/03/29 00:11:26;;;;;;;0.40;0.30;;;;;;;7.36;98.36;100580.28;4990856;28;20485;-52
2023/03/29 00:13:53;;;;;;;0.83;0.83;;;;;;;7.46;97.38;100578.41;4991546;28;20453;-54
2023/03/29 00:16:19;;;;;;;0.30;0.23;;;;;;;7.42;97.57;100569.66;4990067;28;20861;-51
2023/03/29 00:18:46;;;;;;;1.17;1.17;;;;;;;7.42;96.51;100578.47;4979418;28;20454;-52
2023/03/29 00:21:12;;;;;;;0.37;0.27;;;;;;;7.33;96.10;100573.25;4991072;28;20457;-52
2023/03/29 00:23:39;;;;;;;0.50;0.30;;;;;;;7.49;95.24;100575.72;4991010;28;20885;-53
2023/03/29 00:26:06;;;;;;;0.30;0.30;;;;;;;7.47;95.64;100569.59;4990716;28;20453;-51
2023/03/29 00:28:34;;;;;;;2.00;0.63;;;;;;;7.46;95.38;100570.47;4991033;28;20929;-51
2023/03/29 00:31:09;;;;;;;1.17;1.17;;;;;;;7.29;95.90;100568.03;4990667;28;21098;-52
2023/03/29 00:33:36;;;;;;;0.50;0.30;;;;;;;7.30;96.42;100564.50;4990847;28;21324;-51
2023/03/29 00:36:03;;;;;;;0.47;0.40;;;;;;;7.39;96.74;100559.94;4991187;28;20461;-52
2023/03/29 00:38:30;;;;;;;0.50;0.50;;;;;;;7.28;96.73;100553.94;4990826;28;20835;-53
2023/03/29 00:40:57;;;;;;;0.50;0.40;;;;;;;7.24;96.34;100548.69;4990546;28;20454;-52
2023/03/29 00:43:23;;;;;;;8.77;1.47;;;;;;;7.33;96.83;100544.16;4990759;28;20457;-53
2023/03/29 00:45:50;;;;;;;0.50;0.50;;;;;;;7.46;96.61;100539.63;4977505;28;20461;-52
2023/03/29 00:48:20;;;;;;;1.13;0.43;;;;;;;7.42;96.14;100540.56;4980651;28;20475;-53
2023/03/29 00:50:52;;;;;;;0.50;0.47;;;;;;;7.47;96.22;100537.84;4988798;28;20460;-53
2023/03/29 00:53:41;;;;;;;1.50;0.47;;;;;;;7.60;95.84;100539.44;4983235;28;20508;-52
2023/03/29 00:56:17;;;;;;;0.83;0.40;;;;;;;7.61;94.98;100535.91;4968080;28;20458;-52
2023/03/29 00:58:53;;;;;;;0.60;0.30;;;;;;;7.69;94.50;100532.28;4990547;28;20461;-53
2023/03/29 01:01:27;;;;;;;1.30;0.50;;;;;;;7.74;94.80;100526.91;4990280;28;20473;-52
2023/03/29 01:04:03;;;;;;;0.50;0.43;;;;;;;7.57;94.96;100531.56;4990370;28;20449;-52
2023/03/29 01:06:33;;;;;;;0.83;0.83;;;;;;;7.33;95.64;100525.66;4990338;28;20974;-51
2023/03/29 01:09:06;;;;;;;0.30;0.30;;;;;;;7.26;96.35;100521.31;4965587;28;20503;-53
2023/03/29 01:11:38;;;;;;;0.50;0.40;;;;;;;7.28;96.38;100526.63;4990100;28;20496;-51
2023/03/29 01:14:14;;;;;;;0.60;0.50;;;;;;;7.31;96.06;100516.88;4989920;28;20454;-51
2023/03/29 01:16:41;;;;;;;0.50;0.47;;;;;;;7.39;95.72;100516.75;4990264;28;20576;-52
2023/03/29 01:19:12;;;;;;;0.50;0.40;;;;;;;7.17;97.32;100510.00;4983426;28;20984;-51
2023/03/29 01:21:43;;;;;;;1.73;0.57;;;;;;;7.21;97.30;100501.13;4989858;28;20858;-51
2023/03/29 01:24:19;;;;;;;3.23;0.30;;;;;;;7.33;96.19;100511.56;4990095;28;20460;-52
2023/03/29 01:26:58;;;;;;;1.33;0.80;;;;;;;7.43;95.26;100505.28;4964565;28;20453;-52
2023/03/29 01:29:37;;;;;;;0.40;0.20;;;;;;;7.52;95.23;100512.22;4989868;28;20496;-51
2023/03/29 01:32:22;;;;;;;0.50;0.40;;;;;;;7.53;94.63;100509.53;4989927;28;20500;-53
2023/03/29 01:34:56;;;;;;;0.80;0.43;;;;;;;7.59;95.90;100505.97;4989574;28;20453;-51
2023/03/29 01:37:31;;;;;;;0.40;0.37;;;;;;;7.50;95.73;100509.59;4990335;28;20906;-52
2023/03/29 01:39:57;;;;;;;0.83;0.83;;;;;;;7.52;96.66;100501.63;4989854;28;21025;-52
2023/03/29 01:42:35;;;;;;;0.80;0.80;;;;;;;7.51;96.36;100499.88;4989384;28;20508;-53
2023/03/29 01:45:08;;;;;;;0.97;0.50;;;;;;;7.50;97.20;100493.72;4979666;28;20454;-51
2023/03/29 01:47:46;;;;;;;3.53;0.87;;;;;;;7.58;97.93;100494.50;4983897;28;20509;-52
2023/03/29 01:50:26;;;;;;;0.50;0.47;;;;;;;7.53;97.75;100496.31;4983025;28;20504;-53
2023/03/29 01:53:03;;;;;;;0.60;0.47;;;;;;;7.54;96.90;100497.19;4974055;28;20483;-51
2023/03/29 01:55:34;;;;;;;0.63;0.53;;;;;;;7.52;97.15;100491.91;4989695;28;20457;-53
2023/03/29 01:58:04;;;;;;;0.40;0.40;;;;;;;7.41;97.54;100470.94;4972389;28;20478;-51
2023/03/29 02:00:33;;;;;;;4.60;0.50;;;;;;;7.35;97.72;100463.06;4985893;28;20454;-51
2023/03/29 02:03:06;;;;;;;0.70;0.40;;;;;;;7.36;97.84;100459.50;4982651;28;20555;-52
2023/03/29 02:05:36;;;;;;;2.07;0.50;;;;;;;7.41;97.48;100462.13;4993586;28;20449;-51
2023/03/29 02:08:04;;;;;;;0.40;0.40;;;;;;;7.25;97.88;100463.19;4993501;28;20837;-53
2023/03/29 02:10:32;;;;;;;0.80;0.50;;;;;;;7.26;98.48;100460.50;4993656;28;20837;-52
2023/03/29 02:12:59;;;;;;;0.50;0.43;;;;;;;7.37;97.89;100455.97;4993148;28;20493;-52
2023/03/29 02:15:26;;;;;;;1.13;0.40;;;;;;;7.51;97.87;100455.78;4980548;28;20457;-51
2023/03/29 02:17:53;;;;;;;0.70;0.70;;;;;;;7.49;97.10;100457.59;4987061;28;20866;-52
2023/03/29 02:20:28;;;;;;;0.60;0.57;;;;;;;7.43;96.27;100449.75;4967591;28;20453;-52
2023/03/29 02:23:11;;;;;;;0.40;0.30;;;;;;;7.57;96.06;100445.16;4993063;28;20944;-51
2023/03/29 02:25:38;;;;;;;0.90;0.43;;;;;;;7.50;96.11;100439.94;4993319;28;21032;-51
2023/03/29 02:28:05;;;;;;;0.47;0.37;;;;;;;7.46;96.94;100441.75;4993002;28;20537;-52
2023/03/29 02:30:53;;;;;;;0.40;0.30;;;;;;;7.56;97.07;100445.16;4993230;28;20496;-53
2023/03/29 02:33:30;;;;;;;0.50;0.30;;;;;;;7.61;96.59;100445.97;4993005;28;21064;-51
2023/03/29 02:36:03;;;;;;;0.70;0.60;;;;;;;7.61;94.34;100441.56;4993314;28;20553;-51
2023/03/29 02:38:30;;;;;;;0.73;0.60;;;;;;;7.47;95.18;100445.28;4993126;28;20449;-52
2023/03/29 02:40:58;;;;;;;0.50;0.50;;;;;;;7.56;95.01;100446.03;4992949;28;20849;-53
2023/03/29 02:43:27;;;;;;;0.70;0.70;;;;;;;7.61;95.08;100438.03;4975475;28;20461;-53
2023/03/29 02:45:54;;;;;;;0.40;0.40;;;;;;;7.49;96.00;100427.63;4979653;28;20886;-51
2023/03/29 02:48:25;;;;;;;0.40;0.30;;;;;;;7.52;96.21;100435.50;4982704;28;20529;-53
2023/03/29 02:50:58;;;;;;;0.93;0.50;;;;;;;7.54;97.33;100426.69;4990982;28;20493;-53
2023/03/29 02:53:44;;;;;;;0.40;0.20;;;;;;;7.43;95.91;100426.81;4993445;28;20533;-52
2023/03/29 02:56:12;;;;;;;0.67;0.47;;;;;;;7.46;97.24;100428.53;4992539;28;20453;-53
2023/03/29 02:58:39;;;;;;;0.60;0.60;;;;;;;7.37;97.97;100429.53;4992669;28;20454;-51
2023/03/29 03:01:07;;;;;;;0.40;0.40;;;;;;;7.30;99.19;100411.13;4992590;28;20556;-51
2023/03/29 03:03:34;;;;;;;3.13;0.40;;;;;;;7.26;99.88;100422.63;4992498;28;20464;-51
2023/03/29 03:06:01;;;;;;;0.40;0.20;;;;;;;7.18;99.05;100420.09;4992791;28;20464;-52
2023/03/29 03:08:28;;;;;;;8.00;1.60;;;;;;;7.05;100.00;100416.72;4992323;28;20457;-53
2023/03/29 03:10:54;;;;;;;0.50;0.30;;;;;;;6.93;99.53;100406.31;4992301;28;20497;-52
2023/03/29 03:13:20;;;;;;;1.33;0.43;;;;;;;6.93;100.00;100416.00;4991640;28;20917;-52
2023/03/29 03:15:48;;;;;;;0.50;0.47;;;;;;;6.83;99.85;100416.09;4991556;28;20831;-52
2023/03/29 03:18:15;;;;;;;0.50;0.50;;;;;;;7.05;100.00;100415.88;4986204;28;20493;-54
2023/03/29 03:20:45;;;;;;;1.27;0.83;;;;;;;6.84;99.49;100411.69;4992490;28;20445;-52
2023/03/29 03:23:11;;;;;;;0.30;0.20;;;;;;;7.09;99.64;100409.63;4992270;28;20477;-52
2023/03/29 03:25:38;;;;;;;0.60;0.40;;;;;;;6.95;99.69;100408.94;4992130;28;20468;-52
2023/03/29 03:28:04;;;;;;;1.10;1.00;;;;;;;7.11;98.71;100402.56;4992013;28;20458;-53
2023/03/29 03:30:32;;;;;;;0.80;0.57;;;;;;;7.07;99.87;100403.50;4992159;28;20493;-52
2023/03/29 03:32:59;;;;;;;0.50;0.50;;;;;;;7.03;98.71;100394.75;4991770;28;20473;-51
2023/03/29 03:35:25;;;;;;;0.40;0.30;;;;;;;7.08;98.71;100397.31;4991984;28;20457;-52
2023/03/29 03:37:52;;;;;;;0.40;0.30;;;;;;;7.13;98.35;100393.75;4991639;28;20456;-51
2023/03/29 03:40:19;;;;;;;0.57;0.30;;;;;;;7.15;97.78;100395.47;4992170;28;20449;-53
2023/03/29 03:42:46;;;;;;;0.40;0.40;;;;;;;7.07;99.23;100392.94;4991655;28;20837;-51
2023/03/29 03:45:12;;;;;;;0.40;0.30;;;;;;;6.98;99.45;100396.53;4980804;28;20489;-53
2023/03/29 03:47:39;;;;;;;2.50;0.40;;;;;;;6.95;99.64;100388.66;4985442;28;20460;-51
2023/03/29 03:50:07;;;;;;;0.67;0.67;;;;;;;7.02;99.68;100389.47;4983818;28;20493;-53
2023/03/29 03:52:34;;;;;;;1.33;0.40;;;;;;;6.93;100.00;100394.88;4984045;28;20477;-52
2023/03/29 03:55:01;;;;;;;0.47;0.47;;;;;;;6.88;99.99;100401.97;4991821;28;20458;-51
2023/03/29 03:57:28;;;;;;;0.30;0.20;;;;;;;6.79;100.00;100397.66;4991513;28;20541;-51
2023/03/29 03:59:55;;;;;;;0.60;0.60;;;;;;;6.78;100.00;100402.06;4991521;28;20763;-52
2023/03/29 04:02:21;;;;;;;0.60;0.53;;;;;;;6.76;100.00;100406.50;4991362;28;20548;-54
2023/03/29 04:04:48;;;;;;;0.40;0.33;;;;;;;6.73;100.00;100408.31;4991749;28;20524;-52
2023/03/29 04:07:16;;;;;;;0.40;0.30;;;;;;;6.79;100.00;100411.75;4991207;28;20877;-53
2023/03/29 04:09:43;;;;;;;0.57;0.50;;;;;;;6.82;100.00;100413.47;4991334;28;20503;-53
2023/03/29 04:12:10;;;;;;;0.50;0.37;;;;;;;6.75;100.00;100407.41;4991241;28;20481;-52
2023/03/29 04:14:37;;;;;;;0.73;0.73;;;;;;;6.77;100.00;100407.38;4991019;28;20950;-51
2023/03/29 04:17:04;;;;;;;0.40;0.30;;;;;;;6.75;100.00;100401.25;4991251;28;20495;-54
2023/03/29 04:19:30;;;;;;;3.57;0.90;;;;;;;6.72;100.00;100399.53;4985258;28;20456;-53
2023/03/29 04:21:57;;;;;;;3.40;0.77;;;;;;;6.74;100.00;100395.09;4991081;28;20477;-52
2023/03/29 04:24:24;;;;;;;0.50;0.50;;;;;;;6.73;100.00;100393.34;4973641;28;21010;-52
2023/03/29 04:26:50;;;;;;;0.30;0.30;;;;;;;6.79;100.00;100392.38;4990697;28;20458;-51
2023/03/29 04:29:16;;;;;;;0.70;0.70;;;;;;;6.79;100.00;100397.66;4990581;28;20488;-53
2023/03/29 04:31:43;;;;;;;0.67;0.57;;;;;;;6.67;100.00;100392.53;4990798;28;20481;-53
2023/03/29 04:34:09;;;;;;;0.73;0.70;;;;;;;6.66;100.00;100389.00;4973491;28;20462;-52
2023/03/29 04:36:36;;;;;;;0.30;0.30;;;;;;;6.73;100.00;100384.53;4990959;28;20454;-51
2023/03/29 04:39:03;;;;;;;69.53;1.10;;;;;;;6.76;100.00;100377.44;4990673;28;20457;-51
2023/03/29 04:41:31;;;;;;;1.17;0.83;;;;;;;6.76;100.00;100382.72;4990696;28;20829;-53
2023/03/29 04:43:57;;;;;;;0.67;0.67;;;;;;;6.82;100.00;100371.22;4988801;28;20453;-52
2023/03/29 04:46:25;;;;;;;3.50;0.40;;;;;;;6.78;100.00;100373.03;4993997;28;20516;-51
2023/03/29 04:48:52;;;;;;;0.73;0.40;;;;;;;6.80;100.00;100371.22;4978043;28;20562;-52
2023/03/29 04:51:21;;;;;;;0.87;0.80;;;;;;;6.84;100.00;100374.69;4987488;28;20498;-53
2023/03/29 04:53:49;;;;;;;0.60;0.60;;;;;;;6.84;100.00;100370.28;4986268;28;20454;-52
2023/03/29 04:56:16;;;;;;;0.40;0.30;;;;;;;6.89;100.00;100377.31;4990556;28;20457;-51
2023/03/29 04:58:43;;;;;;;0.47;0.47;;;;;;;6.89;100.00;100377.31;4990047;28;20520;-52
2023/03/29 05:01:09;;;;;;;0.40;0.30;;;;;;;6.91;100.00;100375.53;4990164;28;20463;-52
2023/03/29 05:03:36;;;;;;;0.50;0.50;;;;;;;6.97;100.00;100375.44;4990407;28;20469;-52
2023/03/29 05:06:07;;;;;;;0.77;0.77;;;;;;;6.84;100.00;100372.06;4990270;28;20833;-51
2023/03/29 05:08:37;;;;;;;0.57;0.40;;;;;;;6.91;100.00;100373.75;4990094;28;20568;-51
2023/03/29 05:11:09;;;;;;;0.80;0.57;;;;;;;7.02;100.00;100374.50;4989789;28;20493;-53
2023/03/29 05:13:37;;;;;;;1.07;0.80;;;;;;;7.12;100.00;100368.16;4990550;28;20500;-52
2023/03/29 05:16:04;;;;;;;0.90;0.90;;;;;;;7.15;100.00;100374.34;4990275;28;20453;-52
2023/03/29 05:18:30;;;;;;;1.50;1.13;;;;;;;7.18;100.00;100375.16;4983531;28;20540;-52
2023/03/29 05:20:58;;;;;;;0.80;0.80;;;;;;;7.20;100.00;100377.78;4990375;28;20536;-52
2023/03/29 05:23:25;;;;;;;0.73;0.70;;;;;;;7.24;100.00;100388.28;4990202;28;21042;-53
2023/03/29 05:25:54;;;;;;;0.80;0.80;;;;;;;7.20;100.00;100383.06;4990017;28;20452;-51
2023/03/29 05:28:21;;;;;;;2.27;1.17;;;;;;;7.25;100.00;100387.38;4989753;28;20477;-52
2023/03/29 05:30:58;;;;;;;4.33;1.27;;;;;;;7.17;100.00;100380.47;4989719;28;21014;-53
2023/03/29 05:33:25;;;;;;;2.70;1.60;;;;;;;7.18;100.00;100385.75;4965825;28;20786;-51
2023/03/29 05:36:04;;;;;;;1.43;1.07;;;;;;;7.01;100.00;100385.09;4989780;28;20463;-50
2023/03/29 05:38:34;;;;;;;2.37;0.97;;;;;;;6.97;100.00;100378.06;4989027;28;20481;-53
2023/03/29 05:41:01;;;;;;;1.37;1.27;;;;;;;6.86;100.00;100386.16;4989790;28;20453;-52
2023/03/29 05:43:28;;;;;;;1.03;0.90;;;;;;;6.90;100.00;100385.22;4990014;28;20552;-51
2023/03/29 05:45:55;;;;;;;7.33;1.23;;;;;;;7.02;100.00;100387.72;4976858;28;20536;-51
2023/03/29 05:48:24;;;;;;;3.60;0.70;;;;;;;7.06;100.00;100381.47;4979405;28;20462;-51
2023/03/29 05:50:52;;;;;;;2.77;2.50;;;;;;;7.14;100.00;100384.03;4988104;28;20577;-51
2023/03/29 05:53:21;;;;;;;0.93;0.93;;;;;;;7.13;100.00;100391.09;4981947;28;20831;-51
2023/03/29 05:55:47;;;;;;;1.80;1.00;;;;;;;7.03;100.00;100391.22;4989811;28;20453;-53
2023/03/29 05:58:16;;;;;;;1.07;0.97;;;;;;;7.12;100.00;100391.09;4989506;28;20460;-51
2023/03/29 06:00:43;;;;;;;0.67;0.63;;;;;;;7.11;100.00;100398.13;4989580;28;20457;-51
2023/03/29 06:03:18;;;;;;;1.13;0.77;;;;;;;7.08;100.00;100394.66;4989511;28;20805;-51
2023/03/29 06:05:55;;;;;;;1.23;0.87;;;;;;;6.93;100.00;100390.44;4989365;28;20457;-53
2023/03/29 06:08:22;;;;;;;0.80;0.80;;;;;;;7.15;100.00;100399.00;4989412;28;20464;-51
2023/03/29 06:10:48;;;;;;;1.40;1.00;;;;;;;7.09;100.00;100394.66;4989501;28;20493;-51
2023/03/29 06:13:16;;;;;;;1.33;1.23;;;;;;;7.20;100.00;100396.28;4989160;28;20493;-52
2023/03/29 06:15:42;;;;;;;0.70;0.70;;;;;;;7.02;100.00;100400.06;4989604;28;20524;-52
2023/03/29 06:18:08;;;;;;;0.70;0.70;;;;;;;7.13;100.00;100400.78;4982742;28;20458;-51
2023/03/29 06:20:35;;;;;;;0.83;0.80;;;;;;;7.25;100.00;100402.38;4989690;28;20480;-52
2023/03/29 06:23:01;;;;;;;0.90;0.90;;;;;;;7.31;100.00;100394.38;4989339;28;20479;-52
2023/03/29 06:25:28;;;;;;;1.80;0.87;;;;;;;7.42;100.00;100389.81;4989432;28;20464;-53
2023/03/29 06:27:55;;;;;;;0.70;0.57;;;;;;;7.35;100.00;100402.25;4989445;28;20548;-52
2023/03/29 06:30:22;;;;;;;10.40;1.90;;;;;;;7.41;100.00;100398.66;4989143;28;20500;-51
2023/03/29 06:32:49;;;;;;;1.10;0.80;;;;;;;7.38;100.00;100396.91;4988933;28;20483;-52
2023/03/29 06:35:16;;;;;;;0.60;0.60;;;;;;;7.57;100.00;100396.66;4989432;28;20454;-53
2023/03/29 06:37:48;;;;;;;0.50;0.50;;;;;;;7.59;100.00;100402.78;4989235;28;20938;-51
2023/03/29 06:40:16;;;;;;;1.57;1.47;;;;;;;7.76;100.00;100399.91;4989528;28;20508;-52
2023/03/29 06:42:43;;;;;;;1.50;1.40;;;;;;;7.81;100.00;100404.22;4989258;28;20544;-52
2023/03/29 06:45:10;;;;;;;3.80;1.23;;;;;;;7.84;100.00;100412.13;4978771;28;20470;-51
2023/03/29 06:47:36;;;;;;;2.43;1.03;;;;;;;7.77;99.12;100402.50;4983065;28;20458;-52
2023/03/29 06:50:04;;;;;;;8.43;2.10;;;;;;;7.81;98.60;100398.03;4984512;28;20941;-51
2023/03/29 06:52:30;;;;;;;1.00;1.00;;;;;;;7.80;98.13;100402.47;4985258;28;20481;-53
2023/03/29 06:54:57;;;;;;;5.00;1.50;;;;;;;7.91;97.79;100397.88;4993070;28;20458;-51
2023/03/29 06:57:24;;;;;;;7.13;1.10;;;;;;;7.88;96.50;100402.34;4975409;28;20880;-52
2023/03/29 06:59:50;;;;;;;1.43;1.33;;;;;;;7.95;97.18;100401.38;4992374;28;21009;-53
2023/03/29 07:02:17;;;;;;;1.27;1.17;;;;;;;8.05;97.50;100405.59;4992433;28;20564;-51
2023/03/29 07:04:43;;;;;;;1.10;1.00;;;;;;;8.28;94.99;100403.44;4992682;28;20523;-51
2023/03/29 07:07:18;;;;;;;1.00;1.00;;;;;;;8.74;94.09;100404.41;4992672;28;20489;-52
2023/03/29 07:09:52;;;;;;;13.67;2.10;;;;;;;8.91;93.33;100402.31;4992862;28;20906;-51
2023/03/29 07:12:21;;;;;;;1.20;1.13;;;;;;;8.71;92.44;100407.97;4968930;28;20560;-51
2023/03/29 07:14:47;;;;;;;3.37;1.80;;;;;;;8.71;91.11;100415.06;4992432;28;20457;-53
2023/03/29 07:17:15;;;;;;;1.27;1.07;;;;;;;8.75;92.25;100411.44;4991153;28;20860;-51
2023/03/29 07:19:42;;;;;;;1.03;0.90;;;;;;;8.92;92.33;100416.44;4987853;28;20493;-51
2023/03/29 07:22:08;;;;;;;3.60;1.03;;;;;;;9.13;91.77;100411.56;4992287;28;21203;-52
2023/03/29 07:24:35;;;;;;;0.90;0.73;;;;;;;9.02;91.91;100418.84;4992274;28;20548;-53
2023/03/29 07:27:01;;;;;;;1.40;1.30;;;;;;;9.12;90.93;100416.91;4992068;28;20548;-51
2023/03/29 07:29:30;;;;;;;1.27;1.17;;;;;;;9.41;88.94;100406.53;4989628;28;20457;-54
2023/03/29 07:31:57;;;;;;;2.93;0.80;;;;;;;9.44;88.46;100411.75;4981739;28;20572;-53
2023/03/29 07:34:23;;;;;;;0.93;0.83;;;;;;;9.27;89.47;100415.69;4992242;28;20458;-51
2023/03/29 07:36:50;;;;;;;0.60;0.60;;;;;;;9.22;89.86;100415.81;4992299;28;20967;-53
2023/03/29 07:39:16;;;;;;;2.30;0.87;;;;;;;9.27;90.17;100408.63;4991972;28;20458;-53
2023/03/29 07:41:43;;;;;;;2.60;1.80;;;;;;;9.42;88.53;100416.25;4991835;28;20568;-51
2023/03/29 07:44:09;;;;;;;4.90;1.80;;;;;;;9.38;88.42;100422.53;4989041;28;20481;-51
2023/03/29 07:46:36;;;;;;;1.00;0.90;;;;;;;9.13;88.43;100416.00;4981808;28;20985;-52
2023/03/29 07:49:03;;;;;;;1.57;1.47;;;;;;;9.03;89.21;100417.94;4978766;28;20832;-51
2023/03/29 07:51:30;;;;;;;0.77;0.77;;;;;;;9.17;90.09;100415.00;4987541;28;20529;-53
2023/03/29 07:53:56;;;;;;;1.27;1.17;;;;;;;9.25;89.14;100410.44;4988454;28;20525;-52
2023/03/29 07:56:23;;;;;;;1.70;1.60;;;;;;;9.32;89.36;100419.13;4991967;28;20459;-51
2023/03/29 07:58:50;;;;;;;1.00;0.83;;;;;;;9.25;88.80;100413.09;4991472;28;20454;-51
2023/03/29 08:01:18;;;;;;;0.80;0.77;;;;;;;9.33;89.01;100416.47;4990841;28;20529;-51
2023/03/29 08:03:45;;;;;;;1.13;1.03;;;;;;;9.32;89.73;100424.41;4991419;28;20458;-51
2023/03/29 08:06:12;;;;;;;0.80;0.80;;;;;;;9.44;87.95;100425.03;4996414;28;20489;-51
2023/03/29 08:08:38;;;;;;;2.10;1.33;;;;;;;9.46;87.60;100427.69;4985457;28;20549;-51
2023/03/29 08:11:07;;;;;;;1.10;1.00;;;;;;;9.57;87.59;100415.03;4982402;28;20501;-53
2023/03/29 08:13:34;;;;;;;1.47;1.37;;;;;;;9.81;87.85;100410.94;4991256;28;20461;-51
2023/03/29 08:16:00;;;;;;;1.87;1.70;;;;;;;10.41;85.10;100418.31;4991427;28;20457;-53
2023/03/29 08:18:27;;;;;;;2.13;0.63;;;;;;;10.10;84.33;100411.09;4967566;28;20881;-52
2023/03/29 08:20:53;;;;;;;1.20;1.17;;;;;;;9.70;85.41;100415.63;4991241;28;20454;-52
2023/03/29 08:23:20;;;;;;;1.33;1.23;;;;;;;9.80;85.52;100415.38;4990951;28;20900;-51
2023/03/29 08:25:46;;;;;;;2.00;1.90;;;;;;;9.43;85.83;100412.66;4991364;28;20465;-52
2023/03/29 08:28:13;;;;;;;1.50;1.40;;;;;;;9.90;86.77;100401.91;4990957;28;20533;-52
2023/03/29 08:30:39;;;;;;;2.00;1.13;;;;;;;9.80;85.37;100409.19;4991260;28;20516;-54
2023/03/29 08:33:06;;;;;;;1.07;0.97;;;;;;;9.88;87.21;100409.03;4990848;28;20479;-52
2023/03/29 08:35:32;;;;;;;0.50;0.40;;;;;;;10.12;85.69;100411.06;4990781;28;20457;-53
2023/03/29 08:37:59;;;;;;;1.10;0.97;;;;;;;10.48;84.82;100424.38;4990940;28;20489;-52
2023/03/29 08:40:28;;;;;;;2.17;2.03;;;;;;;10.46;83.87;100412.91;4990917;28;20457;-52
2023/03/29 08:43:11;;;;;;;1.17;0.73;;;;;;;10.46;82.49;100412.91;4990626;28;20560;-53
2023/03/29 08:45:54;;;;;;;1.47;1.33;;;;;;;10.48;84.05;100413.75;4977854;28;20827;-52
2023/03/29 08:48:21;;;;;;;1.43;1.33;;;;;;;10.66;83.23;100413.25;4981128;28;20553;-53
2023/03/29 08:50:53;;;;;;;6.97;3.80;;;;;;;10.70;82.73;100419.38;4987972;28;20489;-53
2023/03/29 08:53:30;;;;;;;1.80;1.17;;;;;;;10.80;82.70;100413.75;4983332;28;20485;-53
2023/03/29 08:55:58;;;;;;;0.73;0.67;;;;;;;10.74;82.59;100408.59;4990682;28;20960;-52
2023/03/29 08:58:30;;;;;;;4.67;0.93;;;;;;;10.77;82.26;100402.31;4990213;28;20453;-53
2023/03/29 09:00:58;;;;;;;5.60;1.07;;;;;;;10.84;82.33;100404.78;4991247;28;20449;-52
2023/03/29 09:03:36;;;;;;;1.10;0.80;;;;;;;10.89;81.45;100396.66;4990934;28;21239;-52
2023/03/29 09:06:06;;;;;;;1.33;1.23;;;;;;;10.98;81.10;100396.41;4990705;28;20540;-54
2023/03/29 09:08:42;;;;;;;1.27;1.07;;;;;;;11.62;80.81;100396.28;4990313;28;20481;-54
2023/03/29 09:11:17;;;;;;;1.27;0.60;;;;;;;11.73;79.63;100397.69;4989958;28;21013;-55
2023/03/29 09:14:22;;;;;;;0.83;0.83;;;;;;;12.02;78.82;100399.44;4990227;28;20475;-56
2023/03/29 09:17:32;;;;;;;1.63;1.53;;;;;;;12.09;79.11;100403.66;4990089;28;20837;-53
2023/03/29 09:20:30;;;;;;;1.33;0.87;;;;;;;12.06;79.07;100393.09;4984761;28;20951;-54
2023/03/29 09:23:02;;;;;;;0.90;0.70;;;;;;;12.10;78.97;100393.88;4989983;28;20480;-53
2023/03/29 09:26:00;;;;;;;1.80;1.70;;;;;;;12.19;79.08;100401.53;4990058;28;20453;-54
2023/03/29 09:28:39;;;;;;;1.40;1.40;;;;;;;12.07;77.63;100404.63;4990790;28;20453;-54
2023/03/29 09:31:15;;;;;;;1.03;0.93;;;;;;;12.31;79.41;100408.25;4990497;28;20497;-54
2023/03/29 09:33:49;;;;;;;0.80;0.57;;;;;;;12.53;77.18;100406.59;4990252;28;20833;-53
2023/03/29 09:36:24;;;;;;;6.00;1.20;;;;;;;12.62;77.80;100400.97;4990163;28;20454;-54
2023/03/29 09:38:53;;;;;;;1.10;0.90;;;;;;;12.45;78.12;100380.19;4974162;28;20943;-53
2023/03/29 09:41:32;;;;;;;1.03;0.97;;;;;;;12.67;78.53;100371.44;4990197;28;20480;-54
2023/03/29 09:44:04;;;;;;;1.10;1.00;;;;;;;13.12;77.32;100384.91;4988414;28;20576;-51
2023/03/29 09:47:00;;;;;;;0.90;0.73;;;;;;;13.27;77.06;100373.66;4979716;28;20941;-51
2023/03/29 09:49:33;;;;;;;0.90;0.57;;;;;;;13.26;76.21;100377.28;4963253;28;20489;-52
2023/03/29 09:52:07;;;;;;;1.80;0.60;;;;;;;13.56;76.56;100380.53;4965154;28;20502;-51
2023/03/29 09:54:34;;;;;;;1.37;1.37;;;;;;;12.81;78.89;100368.28;4990260;28;20453;-51
2023/03/29 09:57:00;;;;;;;1.30;1.20;;;;;;;13.17;78.03;100366.94;4989647;28;20457;-51
2023/03/29 09:59:27;;;;;;;0.60;0.43;;;;;;;13.45;77.38;100361.44;4989918;28;20505;-51
2023/03/29 10:02:04;;;;;;;7.93;1.30;;;;;;;13.76;77.02;100363.75;4989944;28;20469;-51
2023/03/29 10:04:31;;;;;;;2.00;0.93;;;;;;;13.87;76.25;100365.97;4989771;28;20471;-51
2023/03/29 10:06:58;;;;;;;5.50;0.80;;;;;;;13.91;75.66;100360.44;4991795;28;20523;-50
2023/03/29 10:09:28;;;;;;;0.90;0.73;;;;;;;13.97;76.27;100358.44;4989469;28;20464;-52
2023/03/29 10:12:03;;;;;;;0.83;0.60;;;;;;;13.77;77.18;100352.13;4989453;28;20493;-52
2023/03/29 10:14:37;;;;;;;0.73;0.40;;;;;;;13.87;76.52;100342.81;4989761;28;20499;-52
2023/03/29 10:17:10;;;;;;;0.60;0.47;;;;;;;14.22;76.04;100343.09;4964792;28;20455;-52
2023/03/29 10:19:36;;;;;;;1.13;0.80;;;;;;;14.18;76.24;100331.69;4980220;28;20457;-52
2023/03/29 10:22:16;;;;;;;1.30;1.20;;;;;;;14.47;76.15;100342.97;4997249;28;20992;-54
2023/03/29 10:24:51;;;;;;;1.03;0.60;;;;;;;14.41;74.75;100329.84;4989399;28;20453;-52
2023/03/29 10:27:26;;;;;;;0.50;0.43;;;;;;;14.38;75.92;100336.16;4976539;28;20531;-51
2023/03/29 10:29:54;;;;;;;3.90;1.03;;;;;;;14.48;76.01;100332.19;4993134;28;20457;-52
2023/03/29 10:32:20;;;;;;;1.00;0.77;;;;;;;14.92;74.85;100321.28;4993079;28;20501;-52
2023/03/29 10:34:48;;;;;;;2.07;0.73;;;;;;;14.72;75.27;100332.03;4993463;28;20453;-51
2023/03/29 10:37:18;;;;;;;0.60;0.40;;;;;;;14.92;74.86;100323.09;4993570;28;20468;-51
2023/03/29 10:39:47;;;;;;;0.80;0.77;;;;;;;15.20;74.18;100328.91;4967299;28;20457;-52
2023/03/29 10:42:22;;;;;;;0.60;0.50;;;;;;;15.19;73.08;100327.16;4975459;28;20543;-54
2023/03/29 10:44:56;;;;;;;0.70;0.60;;;;;;;15.49;73.24;100314.16;4973524;28;20446;-53
2023/03/29 10:47:24;;;;;;;1.27;0.90;;;;;;;15.82;71.86;100321.50;4986858;28;20467;-52
2023/03/29 10:49:53;;;;;;;0.60;0.50;;;;;;;15.59;72.64;100322.59;4965843;28;20624;-51
2023/03/29 10:52:22;;;;;;;1.30;1.20;;;;;;;15.59;72.37;100314.56;4967903;28;20504;-52
2023/03/29 10:54:51;;;;;;;0.80;0.73;;;;;;;16.02;71.88;100293.69;4992789;28;20457;-52
2023/03/29 10:57:56;;;;;;;0.83;0.73;;;;;;;16.09;71.39;100306.72;4992830;28;20963;-52
2023/03/29 11:00:32;;;;;;;0.70;0.60;;;;;;;16.05;71.20;100307.81;4980801;28;20495;-54
2023/03/29 11:03:12;;;;;;;0.87;0.77;;;;;;;16.02;72.09;100302.59;4993992;28;20544;-55
2023/03/29 11:06:05;;;;;;;0.50;0.40;;;;;;;16.58;70.16;100305.03;4993032;28;20540;-55
2023/03/29 11:08:47;;;;;;;0.80;0.57;;;;;;;16.79;69.08;100300.34;4992725;28;20935;-55
2023/03/29 11:11:55;;;;;;;2.30;1.57;;;;;;;17.12;68.54;100303.00;4992343;28;20498;-55
2023/03/29 11:15:09;;;;;;;1.20;0.60;;;;;;;17.31;67.95;100296.63;5057435;22;20530;-51
2023/03/29 11:18:13;;;;;;;0.70;0.60;;;;;;;17.04;68.29;100305.25;5041546;28;20455;-51
2023/03/29 11:21:07;;;;;;;0.97;0.53;;;;;;;16.88;67.52;100305.22;5030884;28;20795;-51
2023/03/29 11:23:38;;;;;;;1.17;0.83;;;;;;;16.42;68.71;100296.03;5024894;28;20475;-51
2023/03/29 11:26:30;;;;;;;2.80;0.67;;;;;;;16.58;68.48;100291.63;5038130;28;20451;-52
2023/03/29 11:29:03;;;;;;;4.33;0.70;;;;;;;16.81;67.94;100295.75;5041395;28;20459;-51
2023/03/29 11:31:43;;;;;;;15.03;0.67;;;;;;;16.74;67.77;100296.19;5044983;28;21005;-51
2023/03/29 11:34:16;;;;;;;0.40;0.30;;;;;;;16.55;68.65;100288.22;5044641;28;20891;-51
2023/03/29 11:36:53;;;;;;;0.97;0.93;;;;;;;16.88;67.85;100290.94;5042540;28;20462;-51
2023/03/29 11:39:57;;;;;;;0.93;0.80;;;;;;;16.59;67.04;100287.97;5045011;28;20508;-51
2023/03/29 11:42:30;;;;;;;1.10;0.90;;;;;;;16.46;67.59;100286.03;5044546;28;20438;-51
2023/03/29 11:45:00;;;;;;;0.87;0.60;;;;;;;16.26;68.75;100284.38;5040776;28;20446;-51
2023/03/29 11:47:35;;;;;;;16.57;1.10;;;;;;;16.63;69.08;100277.06;5047617;28;20563;-52